sensor_id;sensor_type;location;lat;lon;timestamp;temperature;humidity
3860;DHT22;1945;52.036;8.614;2023-07-20T00:01:48;17.30;99.90
3860;DHT22;1945;52.036;8.614;2023-07-20T00:04:16;17.30;99.90
3860;DHT22;1945;52.036;8.614;2023-07-20T00:06:43;17.30;99.90
3860;DHT22;1945;52.036;8.614;2023-07-20T00:09:10;17.20;99.90
3860;DHT22;1945;52.036;8.614;2023-07-20T00:11:37;17.20;99.90
3860;DHT22;1945;52.036;8.614;2023-07-20T00:14:05;17.20;99.90
3860;DHT22;1945;52.036;8.614;2023-07-20T00:16:32;17.10;99.90
3860;DHT22;1945;52.036;8.614;2023-07-20T00:18:59;17.10;99.90
3860;DHT22;1945;52.036;8.614;2023-07-20T00:21:27;17.00;99.90
3860;DHT22;1945;52.036;8.614;2023-07-20T00:23:54;16.90;99.90
3860;DHT22;1945;52.036;8.614;2023-07-20T00:26:21;16.90;99.90
3860;DHT22;1945;52.036;8.614;2023-07-20T00:28:50;16.90;99.90
3860;DHT22;1945;52.036;8.614;2023-07-20T00:31:17;16.90;99.90
3860;DHT22;1945;52.036;8.614;2023-07-20T00:33:44;16.80;99.90
3860;DHT22;1945;52.036;8.614;2023-07-20T00:36:10;16.80;99.90
3860;DHT22;1945;52.036;8.614;2023-07-20T00:38:38;16.70;99.90
3860;DHT22;1945;52.036;8.614;2023-07-20T00:41:06;16.70;99.90
3860;DHT22;1945;52.036;8.614;2023-07-20T00:43:33;16.70;99.90
3860;DHT22;1945;52.036;8.614;2023-07-20T00:46:00;16.70;99.90
3860;DHT22;1945;52.036;8.614;2023-07-20T00:48:28;16.80;99.90
3860;DHT22;1945;52.036;8.614;2023-07-20T00:57:02;16.80;99.90
3860;DHT22;1945;52.036;8.614;2023-07-20T00:59:29;16.80;99.90
3860;DHT22;1945;52.036;8.614;2023-07-20T01:01:56;16.80;99.90
3860;DHT22;1945;52.036;8.614;2023-07-20T01:04:23;16.90;99.90
3860;DHT22;1945;52.036;8.614;2023-07-20T01:07:02;16.80;99.90
3860;DHT22;1945;52.036;8.614;2023-07-20T01:09:39;16.80;99.90
3860;DHT22;1945;52.036;8.614;2023-07-20T01:12:12;16.70;99.90
3860;DHT22;1945;52.036;8.614;2023-07-20T01:14:40;16.80;99.90
3860;DHT22;1945;52.036;8.614;2023-07-20T01:17:08;16.70;99.90
3860;DHT22;1945;52.036;8.614;2023-07-20T01:19:34;16.70;99.90
3860;DHT22;1945;52.036;8.614;2023-07-20T01:22:07;16.60;99.90
3860;DHT22;1945;52.036;8.614;2023-07-20T01:33:31;16.60;99.90
3860;DHT22;1945;52.036;8.614;2023-07-20T01:36:00;16.60;99.90
3860;DHT22;1945;52.036;8.614;2023-07-20T01:38:27;16.60;99.90
3860;DHT22;1945;52.036;8.614;2023-07-20T01:40:55;16.60;99.90
3860;DHT22;1945;52.036;8.614;2023-07-20T01:43:22;16.60;99.90
3860;DHT22;1945;52.036;8.614;2023-07-20T01:45:49;16.50;99.90
3860;DHT22;1945;52.036;8.614;2023-07-20T01:48:15;16.60;99.90
3860;DHT22;1945;52.036;8.614;2023-07-20T01:50:44;16.50;99.90
3860;DHT22;1945;52.036;8.614;2023-07-20T01:53:11;16.50;99.90
3860;DHT22;1945;52.036;8.614;2023-07-20T01:55:38;16.60;99.90
3860;DHT22;1945;52.036;8.614;2023-07-20T01:58:04;16.50;99.90
3860;DHT22;1945;52.036;8.614;2023-07-20T02:00:32;16.60;99.90
3860;DHT22;1945;52.036;8.614;2023-07-20T02:02:58;16.60;99.90
3860;DHT22;1945;52.036;8.614;2023-07-20T02:05:25;16.50;99.90
3860;DHT22;1945;52.036;8.614;2023-07-20T02:07:53;16.50;99.90
3860;DHT22;1945;52.036;8.614;2023-07-20T02:10:20;16.50;99.90
3860;DHT22;1945;52.036;8.614;2023-07-20T02:12:47;16.50;99.90
3860;DHT22;1945;52.036;8.614;2023-07-20T02:15:14;16.50;99.90
3860;DHT22;1945;52.036;8.614;2023-07-20T02:17:42;16.50;99.90
3860;DHT22;1945;52.036;8.614;2023-07-20T02:20:09;16.50;99.90
3860;DHT22;1945;52.036;8.614;2023-07-20T02:22:36;16.50;99.90
3860;DHT22;1945;52.036;8.614;2023-07-20T02:25:06;16.50;99.90
3860;DHT22;1945;52.036;8.614;2023-07-20T02:27:33;16.50;99.90
3860;DHT22;1945;52.036;8.614;2023-07-20T02:30:00;16.50;99.90
3860;DHT22;1945;52.036;8.614;2023-07-20T02:32:27;16.50;99.90
3860;DHT22;1945;52.036;8.614;2023-07-20T02:34:54;16.60;99.90
3860;DHT22;1945;52.036;8.614;2023-07-20T02:37:20;16.40;99.90
3860;DHT22;1945;52.036;8.614;2023-07-20T02:39:47;16.40;99.90
3860;DHT22;1945;52.036;8.614;2023-07-20T02:42:15;16.40;99.90
3860;DHT22;1945;52.036;8.614;2023-07-20T02:44:42;16.40;99.90
3860;DHT22;1945;52.036;8.614;2023-07-20T02:47:09;16.50;99.90
3860;DHT22;1945;52.036;8.614;2023-07-20T02:49:36;16.50;99.90
3860;DHT22;1945;52.036;8.614;2023-07-20T02:52:03;16.40;99.90
3860;DHT22;1945;52.036;8.614;2023-07-20T02:54:30;16.40;99.90
3860;DHT22;1945;52.036;8.614;2023-07-20T02:56:57;16.30;99.90
3860;DHT22;1945;52.036;8.614;2023-07-20T02:59:25;16.30;99.90
3860;DHT22;1945;52.036;8.614;2023-07-20T03:01:52;16.30;99.90
3860;DHT22;1945;52.036;8.614;2023-07-20T03:04:19;16.30;99.90
3860;DHT22;1945;52.036;8.614;2023-07-20T03:06:47;16.30;99.90
3860;DHT22;1945;52.036;8.614;2023-07-20T03:09:13;16.20;99.90
3860;DHT22;1945;52.036;8.614;2023-07-20T03:11:41;16.20;99.90
3860;DHT22;1945;52.036;8.614;2023-07-20T03:14:08;16.20;99.90
3860;DHT22;1945;52.036;8.614;2023-07-20T03:16:37;16.20;99.90
3860;DHT22;1945;52.036;8.614;2023-07-20T03:19:04;16.20;99.90
3860;DHT22;1945;52.036;8.614;2023-07-20T03:21:30;16.20;99.90
3860;DHT22;1945;52.036;8.614;2023-07-20T03:23:57;16.20;99.90
3860;DHT22;1945;52.036;8.614;2023-07-20T03:26:24;16.30;99.90
3860;DHT22;1945;52.036;8.614;2023-07-20T03:28:51;16.30;99.90
3860;DHT22;1945;52.036;8.614;2023-07-20T03:31:17;16.30;99.90
3860;DHT22;1945;52.036;8.614;2023-07-20T03:33:45;16.30;99.90
3860;DHT22;1945;52.036;8.614;2023-07-20T03:36:12;16.40;99.90
3860;DHT22;1945;52.036;8.614;2023-07-20T03:38:39;16.40;99.90
3860;DHT22;1945;52.036;8.614;2023-07-20T03:41:06;16.40;99.90
3860;DHT22;1945;52.036;8.614;2023-07-20T03:43:32;16.30;99.90
3860;DHT22;1945;52.036;8.614;2023-07-20T03:45:58;16.50;99.90
3860;DHT22;1945;52.036;8.614;2023-07-20T03:48:25;16.10;99.90
3860;DHT22;1945;52.036;8.614;2023-07-20T03:50:54;16.00;99.90
3860;DHT22;1945;52.036;8.614;2023-07-20T03:53:20;15.80;99.90
3860;DHT22;1945;52.036;8.614;2023-07-20T03:55:48;15.70;99.90
3860;DHT22;1945;52.036;8.614;2023-07-20T03:58:15;15.70;99.90
3860;DHT22;1945;52.036;8.614;2023-07-20T04:00:45;15.60;99.90
3860;DHT22;1945;52.036;8.614;2023-07-20T04:03:12;15.40;99.90
3860;DHT22;1945;52.036;8.614;2023-07-20T04:05:39;15.40;99.90
3860;DHT22;1945;52.036;8.614;2023-07-20T04:08:07;15.40;99.90
3860;DHT22;1945;52.036;8.614;2023-07-20T04:10:34;15.30;99.90
3860;DHT22;1945;52.036;8.614;2023-07-20T04:13:01;15.40;99.90
3860;DHT22;1945;52.036;8.614;2023-07-20T04:15:27;15.40;99.90
3860;DHT22;1945;52.036;8.614;2023-07-20T04:17:54;15.30;99.90
3860;DHT22;1945;52.036;8.614;2023-07-20T04:20:22;15.30;99.90
3860;DHT22;1945;52.036;8.614;2023-07-20T04:22:48;15.20;99.90
3860;DHT22;1945;52.036;8.614;2023-07-20T04:25:17;15.20;99.90
3860;DHT22;1945;52.036;8.614;2023-07-20T04:27:44;15.40;99.90
3860;DHT22;1945;52.036;8.614;2023-07-20T04:30:11;15.30;99.90
3860;DHT22;1945;52.036;8.614;2023-07-20T04:32:38;15.30;99.90
3860;DHT22;1945;52.036;8.614;2023-07-20T04:35:18;15.30;99.90
3860;DHT22;1945;52.036;8.614;2023-07-20T04:37:45;15.30;99.90
3860;DHT22;1945;52.036;8.614;2023-07-20T04:40:12;15.20;99.90
3860;DHT22;1945;52.036;8.614;2023-07-20T04:42:41;15.20;99.90
3860;DHT22;1945;52.036;8.614;2023-07-20T04:45:08;15.20;99.90
3860;DHT22;1945;52.036;8.614;2023-07-20T04:47:36;15.20;99.90
3860;DHT22;1945;52.036;8.614;2023-07-20T04:50:03;15.20;99.90
3860;DHT22;1945;52.036;8.614;2023-07-20T04:52:31;15.20;99.90
3860;DHT22;1945;52.036;8.614;2023-07-20T04:54:58;15.10;99.90
3860;DHT22;1945;52.036;8.614;2023-07-20T04:57:24;15.00;99.90
3860;DHT22;1945;52.036;8.614;2023-07-20T04:59:53;15.00;99.90
3860;DHT22;1945;52.036;8.614;2023-07-20T05:02:20;15.10;99.90
3860;DHT22;1945;52.036;8.614;2023-07-20T05:04:47;15.10;99.90
3860;DHT22;1945;52.036;8.614;2023-07-20T05:07:13;15.10;99.90
3860;DHT22;1945;52.036;8.614;2023-07-20T05:09:40;15.30;99.90
3860;DHT22;1945;52.036;8.614;2023-07-20T05:12:07;15.20;99.90
3860;DHT22;1945;52.036;8.614;2023-07-20T05:14:34;15.30;99.90
3860;DHT22;1945;52.036;8.614;2023-07-20T05:17:03;15.30;99.90
3860;DHT22;1945;52.036;8.614;2023-07-20T05:19:30;15.40;99.90
3860;DHT22;1945;52.036;8.614;2023-07-20T05:21:57;15.50;99.90
3860;DHT22;1945;52.036;8.614;2023-07-20T05:24:23;15.50;99.90
3860;DHT22;1945;52.036;8.614;2023-07-20T05:26:50;15.60;99.90
3860;DHT22;1945;52.036;8.614;2023-07-20T05:29:17;15.60;99.90
3860;DHT22;1945;52.036;8.614;2023-07-20T05:31:44;15.60;99.90
3860;DHT22;1945;52.036;8.614;2023-07-20T05:34:12;15.70;99.90
3860;DHT22;1945;52.036;8.614;2023-07-20T05:36:39;15.80;99.90
3860;DHT22;1945;52.036;8.614;2023-07-20T05:39:06;15.90;99.90
3860;DHT22;1945;52.036;8.614;2023-07-20T05:41:33;16.00;99.90
3860;DHT22;1945;52.036;8.614;2023-07-20T05:44:00;15.90;99.90
3860;DHT22;1945;52.036;8.614;2023-07-20T05:46:28;15.90;99.90
3860;DHT22;1945;52.036;8.614;2023-07-20T05:48:55;15.80;99.90
3860;DHT22;1945;52.036;8.614;2023-07-20T05:51:23;15.90;99.90
3860;DHT22;1945;52.036;8.614;2023-07-20T05:53:50;15.90;99.90
3860;DHT22;1945;52.036;8.614;2023-07-20T05:56:17;15.90;99.90
3860;DHT22;1945;52.036;8.614;2023-07-20T05:58:43;15.90;99.90
3860;DHT22;1945;52.036;8.614;2023-07-20T06:01:10;16.00;99.90
3860;DHT22;1945;52.036;8.614;2023-07-20T06:03:37;15.90;99.90
3860;DHT22;1945;52.036;8.614;2023-07-20T06:06:05;16.00;99.90
3860;DHT22;1945;52.036;8.614;2023-07-20T06:08:35;16.20;99.90
3860;DHT22;1945;52.036;8.614;2023-07-20T06:11:03;16.20;99.90
3860;DHT22;1945;52.036;8.614;2023-07-20T06:13:30;16.30;92.90
3860;DHT22;1945;52.036;8.614;2023-07-20T06:15:57;16.10;65.20
3860;DHT22;1945;52.036;8.614;2023-07-20T06:18:23;16.00;12.30
3860;DHT22;1945;52.036;8.614;2023-07-20T06:20:50;16.20;1.00
3860;DHT22;1945;52.036;8.614;2023-07-20T06:23:18;16.30;1.00
3860;DHT22;1945;52.036;8.614;2023-07-20T06:25:46;16.70;1.00
3860;DHT22;1945;52.036;8.614;2023-07-20T06:28:13;17.10;1.00
3860;DHT22;1945;52.036;8.614;2023-07-20T06:30:40;17.60;1.00
3860;DHT22;1945;52.036;8.614;2023-07-20T06:33:07;18.30;1.00
3860;DHT22;1945;52.036;8.614;2023-07-20T06:35:35;18.30;99.90
3860;DHT22;1945;52.036;8.614;2023-07-20T06:38:02;18.20;99.90
3860;DHT22;1945;52.036;8.614;2023-07-20T06:40:29;18.00;99.90
3860;DHT22;1945;52.036;8.614;2023-07-20T06:43:06;17.60;99.90
3860;DHT22;1945;52.036;8.614;2023-07-20T06:45:33;17.90;99.90
3860;DHT22;1945;52.036;8.614;2023-07-20T06:48:00;18.90;99.90
3860;DHT22;1945;52.036;8.614;2023-07-20T06:50:28;18.80;99.90
3860;DHT22;1945;52.036;8.614;2023-07-20T06:52:57;18.40;48.70
3860;DHT22;1945;52.036;8.614;2023-07-20T06:55:24;18.00;99.90
3860;DHT22;1945;52.036;8.614;2023-07-20T06:57:51;18.90;1.00
3860;DHT22;1945;52.036;8.614;2023-07-20T07:00:19;19.20;1.00
3860;DHT22;1945;52.036;8.614;2023-07-20T07:02:46;20.00;1.00
3860;DHT22;1945;52.036;8.614;2023-07-20T07:05:13;20.20;1.00
3860;DHT22;1945;52.036;8.614;2023-07-20T07:07:41;21.10;1.00
3860;DHT22;1945;52.036;8.614;2023-07-20T07:10:08;19.90;1.00
3860;DHT22;1945;52.036;8.614;2023-07-20T07:12:35;19.00;1.00
3860;DHT22;1945;52.036;8.614;2023-07-20T07:15:02;19.50;1.00
3860;DHT22;1945;52.036;8.614;2023-07-20T07:17:30;20.10;1.00
3860;DHT22;1945;52.036;8.614;2023-07-20T07:19:58;20.50;1.00
3860;DHT22;1945;52.036;8.614;2023-07-20T07:22:25;19.60;1.00
3860;DHT22;1945;52.036;8.614;2023-07-20T07:24:52;19.60;1.00
3860;DHT22;1945;52.036;8.614;2023-07-20T07:27:19;19.20;1.00
3860;DHT22;1945;52.036;8.614;2023-07-20T07:29:46;19.50;1.00
3860;DHT22;1945;52.036;8.614;2023-07-20T07:32:15;19.00;1.00
3860;DHT22;1945;52.036;8.614;2023-07-20T07:34:44;19.70;1.00
3860;DHT22;1945;52.036;8.614;2023-07-20T07:37:12;19.90;1.00
3860;DHT22;1945;52.036;8.614;2023-07-20T07:39:39;20.30;99.90
3860;DHT22;1945;52.036;8.614;2023-07-20T07:42:09;20.90;99.90
3860;DHT22;1945;52.036;8.614;2023-07-20T07:44:36;21.80;99.90
3860;DHT22;1945;52.036;8.614;2023-07-20T07:47:02;21.40;70.90
3860;DHT22;1945;52.036;8.614;2023-07-20T07:49:29;20.50;40.60
3860;DHT22;1945;52.036;8.614;2023-07-20T07:51:58;20.70;1.00
3860;DHT22;1945;52.036;8.614;2023-07-20T07:54:27;19.90;1.00
3860;DHT22;1945;52.036;8.614;2023-07-20T07:56:54;19.60;1.00
3860;DHT22;1945;52.036;8.614;2023-07-20T07:59:21;19.70;99.90
3860;DHT22;1945;52.036;8.614;2023-07-20T08:01:48;20.90;99.90
3860;DHT22;1945;52.036;8.614;2023-07-20T08:04:15;22.00;1.00
3860;DHT22;1945;52.036;8.614;2023-07-20T08:06:42;22.50;1.00
3860;DHT22;1945;52.036;8.614;2023-07-20T08:09:11;22.40;1.00
3860;DHT22;1945;52.036;8.614;2023-07-20T08:11:54;21.70;1.00
3860;DHT22;1945;52.036;8.614;2023-07-20T08:14:29;22.80;1.00
3860;DHT22;1945;52.036;8.614;2023-07-20T08:16:55;23.20;1.00
3860;DHT22;1945;52.036;8.614;2023-07-20T08:19:23;23.60;99.90
3860;DHT22;1945;52.036;8.614;2023-07-20T08:21:49;24.00;99.90
3860;DHT22;1945;52.036;8.614;2023-07-20T08:24:18;23.60;96.90
3860;DHT22;1945;52.036;8.614;2023-07-20T08:26:45;23.40;99.90
3860;DHT22;1945;52.036;8.614;2023-07-20T08:29:12;23.70;99.90
3860;DHT22;1945;52.036;8.614;2023-07-20T08:31:39;23.10;99.90
3860;DHT22;1945;52.036;8.614;2023-07-20T08:34:06;23.70;99.90
3860;DHT22;1945;52.036;8.614;2023-07-20T08:36:33;23.70;99.90
3860;DHT22;1945;52.036;8.614;2023-07-20T08:39:02;24.10;99.90
3860;DHT22;1945;52.036;8.614;2023-07-20T08:41:30;24.00;99.90
3860;DHT22;1945;52.036;8.614;2023-07-20T08:43:59;23.90;1.00
3860;DHT22;1945;52.036;8.614;2023-07-20T08:46:27;22.80;61.00
3860;DHT22;1945;52.036;8.614;2023-07-20T08:48:55;22.60;92.00
3860;DHT22;1945;52.036;8.614;2023-07-20T08:51:23;22.20;99.90
3860;DHT22;1945;52.036;8.614;2023-07-20T08:53:52;22.80;2.70
3860;DHT22;1945;52.036;8.614;2023-07-20T08:56:20;23.30;1.00
3860;DHT22;1945;52.036;8.614;2023-07-20T08:58:50;23.80;1.00
3860;DHT22;1945;52.036;8.614;2023-07-20T09:01:19;23.50;1.00
3860;DHT22;1945;52.036;8.614;2023-07-20T09:03:46;23.00;1.00
3860;DHT22;1945;52.036;8.614;2023-07-20T09:06:13;22.60;1.00
3860;DHT22;1945;52.036;8.614;2023-07-20T09:08:40;23.50;1.00
3860;DHT22;1945;52.036;8.614;2023-07-20T09:11:08;23.50;1.00
3860;DHT22;1945;52.036;8.614;2023-07-20T09:13:34;23.50;1.00
3860;DHT22;1945;52.036;8.614;2023-07-20T09:16:03;23.10;1.00
3860;DHT22;1945;52.036;8.614;2023-07-20T09:18:31;22.50;1.00
3860;DHT22;1945;52.036;8.614;2023-07-20T09:21:01;22.00;1.00
3860;DHT22;1945;52.036;8.614;2023-07-20T09:23:32;21.80;1.00
3860;DHT22;1945;52.036;8.614;2023-07-20T09:26:00;22.40;1.00
3860;DHT22;1945;52.036;8.614;2023-07-20T09:28:27;22.60;1.00
3860;DHT22;1945;52.036;8.614;2023-07-20T09:30:54;22.20;1.00
3860;DHT22;1945;52.036;8.614;2023-07-20T09:33:24;22.80;1.00
3860;DHT22;1945;52.036;8.614;2023-07-20T09:35:51;22.60;1.00
3860;DHT22;1945;52.036;8.614;2023-07-20T09:38:18;21.60;1.00
3860;DHT22;1945;52.036;8.614;2023-07-20T09:40:45;21.70;8.70
3860;DHT22;1945;52.036;8.614;2023-07-20T09:43:12;21.40;99.90
3860;DHT22;1945;52.036;8.614;2023-07-20T09:45:43;21.20;99.90
3860;DHT22;1945;52.036;8.614;2023-07-20T09:48:10;21.40;1.00
3860;DHT22;1945;52.036;8.614;2023-07-20T09:50:43;21.40;16.50
3860;DHT22;1945;52.036;8.614;2023-07-20T09:53:15;22.50;1.00
3860;DHT22;1945;52.036;8.614;2023-07-20T09:55:44;22.90;1.00
3860;DHT22;1945;52.036;8.614;2023-07-20T09:58:11;22.70;1.00
3860;DHT22;1945;52.036;8.614;2023-07-20T10:00:42;23.00;1.00
3860;DHT22;1945;52.036;8.614;2023-07-20T10:03:11;22.30;1.00
3860;DHT22;1945;52.036;8.614;2023-07-20T10:05:43;22.10;1.00
3860;DHT22;1945;52.036;8.614;2023-07-20T10:08:11;21.90;1.00
3860;DHT22;1945;52.036;8.614;2023-07-20T10:10:41;21.50;1.00
3860;DHT22;1945;52.036;8.614;2023-07-20T10:13:11;21.30;1.00
3860;DHT22;1945;52.036;8.614;2023-07-20T10:15:45;21.20;1.00
3860;DHT22;1945;52.036;8.614;2023-07-20T10:18:17;22.20;1.00
3860;DHT22;1945;52.036;8.614;2023-07-20T10:20:47;22.60;1.00
3860;DHT22;1945;52.036;8.614;2023-07-20T10:23:14;22.60;1.00
3860;DHT22;1945;52.036;8.614;2023-07-20T10:25:42;23.10;1.00
3860;DHT22;1945;52.036;8.614;2023-07-20T10:28:10;23.20;1.00
3860;DHT22;1945;52.036;8.614;2023-07-20T10:30:38;23.30;1.00
3860;DHT22;1945;52.036;8.614;2023-07-20T10:33:06;23.50;99.90
3860;DHT22;1945;52.036;8.614;2023-07-20T10:35:52;23.30;1.00
3860;DHT22;1945;52.036;8.614;2023-07-20T10:38:18;23.70;99.90
3860;DHT22;1945;52.036;8.614;2023-07-20T10:40:54;23.70;99.90
3860;DHT22;1945;52.036;8.614;2023-07-20T10:43:21;23.40;99.90
3860;DHT22;1945;52.036;8.614;2023-07-20T10:45:50;22.70;99.90
3860;DHT22;1945;52.036;8.614;2023-07-20T10:48:18;22.10;99.90
3860;DHT22;1945;52.036;8.614;2023-07-20T10:50:46;22.20;99.90
3860;DHT22;1945;52.036;8.614;2023-07-20T10:53:34;23.00;99.90
3860;DHT22;1945;52.036;8.614;2023-07-20T10:56:08;23.20;99.90
3860;DHT22;1945;52.036;8.614;2023-07-20T10:58:42;22.60;99.90
3860;DHT22;1945;52.036;8.614;2023-07-20T11:01:13;22.90;99.90
3860;DHT22;1945;52.036;8.614;2023-07-20T11:03:40;23.10;99.90
3860;DHT22;1945;52.036;8.614;2023-07-20T11:06:30;22.90;99.90
3860;DHT22;1945;52.036;8.614;2023-07-20T11:09:09;23.30;99.90
3860;DHT22;1945;52.036;8.614;2023-07-20T11:11:38;23.50;99.90
3860;DHT22;1945;52.036;8.614;2023-07-20T11:14:06;23.90;99.90
3860;DHT22;1945;52.036;8.614;2023-07-20T11:16:38;23.90;99.90
3860;DHT22;1945;52.036;8.614;2023-07-20T11:19:16;23.90;99.90
3860;DHT22;1945;52.036;8.614;2023-07-20T11:21:44;24.50;99.90
3860;DHT22;1945;52.036;8.614;2023-07-20T11:24:13;24.10;99.90
3860;DHT22;1945;52.036;8.614;2023-07-20T11:26:41;24.30;99.90
3860;DHT22;1945;52.036;8.614;2023-07-20T11:29:08;24.40;99.90
3860;DHT22;1945;52.036;8.614;2023-07-20T11:31:36;24.40;99.90
3860;DHT22;1945;52.036;8.614;2023-07-20T11:34:03;23.70;99.90
3860;DHT22;1945;52.036;8.614;2023-07-20T11:36:30;23.50;99.90
3860;DHT22;1945;52.036;8.614;2023-07-20T11:38:58;23.00;99.90
3860;DHT22;1945;52.036;8.614;2023-07-20T11:41:26;22.70;99.90
3860;DHT22;1945;52.036;8.614;2023-07-20T11:43:54;22.30;99.90
3860;DHT22;1945;52.036;8.614;2023-07-20T11:46:21;22.40;99.90
3860;DHT22;1945;52.036;8.614;2023-07-20T11:48:48;22.10;99.90
3860;DHT22;1945;52.036;8.614;2023-07-20T11:51:16;22.00;99.90
3860;DHT22;1945;52.036;8.614;2023-07-20T11:53:44;22.00;99.90
3860;DHT22;1945;52.036;8.614;2023-07-20T11:56:12;22.40;1.00
3860;DHT22;1945;52.036;8.614;2023-07-20T11:58:47;22.90;99.90
3860;DHT22;1945;52.036;8.614;2023-07-20T12:01:14;22.80;99.90
3860;DHT22;1945;52.036;8.614;2023-07-20T12:03:42;22.30;99.90
3860;DHT22;1945;52.036;8.614;2023-07-20T12:06:10;22.00;99.90
3860;DHT22;1945;52.036;8.614;2023-07-20T12:08:41;22.10;99.90
3860;DHT22;1945;52.036;8.614;2023-07-20T12:11:10;22.00;99.90
3860;DHT22;1945;52.036;8.614;2023-07-20T12:13:38;22.10;99.90
3860;DHT22;1945;52.036;8.614;2023-07-20T12:16:14;22.70;99.90
3860;DHT22;1945;52.036;8.614;2023-07-20T12:18:43;23.10;99.90
3860;DHT22;1945;52.036;8.614;2023-07-20T12:21:10;23.00;99.90
3860;DHT22;1945;52.036;8.614;2023-07-20T12:23:38;23.20;99.90
3860;DHT22;1945;52.036;8.614;2023-07-20T12:26:09;23.20;99.90
3860;DHT22;1945;52.036;8.614;2023-07-20T12:28:39;22.80;99.90
3860;DHT22;1945;52.036;8.614;2023-07-20T12:31:08;22.90;99.90
3860;DHT22;1945;52.036;8.614;2023-07-20T12:33:36;22.80;99.90
3860;DHT22;1945;52.036;8.614;2023-07-20T12:36:04;22.80;83.70
3860;DHT22;1945;52.036;8.614;2023-07-20T12:38:31;23.20;99.90
3860;DHT22;1945;52.036;8.614;2023-07-20T12:41:00;23.50;99.90
3860;DHT22;1945;52.036;8.614;2023-07-20T12:43:28;23.70;99.90
3860;DHT22;1945;52.036;8.614;2023-07-20T12:45:56;23.80;99.90
3860;DHT22;1945;52.036;8.614;2023-07-20T12:48:23;24.30;99.90
3860;DHT22;1945;52.036;8.614;2023-07-20T12:50:53;24.20;99.90
3860;DHT22;1945;52.036;8.614;2023-07-20T12:53:21;23.70;99.90
3860;DHT22;1945;52.036;8.614;2023-07-20T12:55:50;23.50;99.90
3860;DHT22;1945;52.036;8.614;2023-07-20T12:58:18;23.20;76.00
3860;DHT22;1945;52.036;8.614;2023-07-20T13:00:45;24.10;99.90
3860;DHT22;1945;52.036;8.614;2023-07-20T13:03:12;24.40;97.20
3860;DHT22;1945;52.036;8.614;2023-07-20T13:05:39;24.40;1.00
3860;DHT22;1945;52.036;8.614;2023-07-20T13:08:08;24.10;3.80
3860;DHT22;1945;52.036;8.614;2023-07-20T13:10:35;23.80;1.00
3860;DHT22;1945;52.036;8.614;2023-07-20T13:13:03;23.40;1.00
3860;DHT22;1945;52.036;8.614;2023-07-20T13:15:32;23.40;1.00
3860;DHT22;1945;52.036;8.614;2023-07-20T13:18:01;24.10;1.00
3860;DHT22;1945;52.036;8.614;2023-07-20T13:20:31;24.10;1.00
3860;DHT22;1945;52.036;8.614;2023-07-20T13:22:57;24.50;1.00
3860;DHT22;1945;52.036;8.614;2023-07-20T13:25:26;24.20;1.00
3860;DHT22;1945;52.036;8.614;2023-07-20T13:27:53;23.70;1.00
3860;DHT22;1945;52.036;8.614;2023-07-20T13:30:20;23.30;1.00
3860;DHT22;1945;52.036;8.614;2023-07-20T13:32:47;23.30;1.00
3860;DHT22;1945;52.036;8.614;2023-07-20T13:35:14;23.40;1.00
3860;DHT22;1945;52.036;8.614;2023-07-20T13:37:41;23.20;1.00
3860;DHT22;1945;52.036;8.614;2023-07-20T13:40:09;23.40;1.00
3860;DHT22;1945;52.036;8.614;2023-07-20T13:42:40;23.50;1.00
3860;DHT22;1945;52.036;8.614;2023-07-20T13:45:07;23.60;1.00
3860;DHT22;1945;52.036;8.614;2023-07-20T13:47:34;23.60;1.00
3860;DHT22;1945;52.036;8.614;2023-07-20T13:50:01;23.90;1.00
3860;DHT22;1945;52.036;8.614;2023-07-20T13:52:28;24.10;1.00
3860;DHT22;1945;52.036;8.614;2023-07-20T13:54:55;24.20;1.10
3860;DHT22;1945;52.036;8.614;2023-07-20T13:57:22;24.30;1.00
3860;DHT22;1945;52.036;8.614;2023-07-20T13:59:50;24.10;1.00
3860;DHT22;1945;52.036;8.614;2023-07-20T14:02:17;24.10;1.00
3860;DHT22;1945;52.036;8.614;2023-07-20T14:04:44;24.50;1.00
3860;DHT22;1945;52.036;8.614;2023-07-20T14:07:11;24.50;1.00
3860;DHT22;1945;52.036;8.614;2023-07-20T14:09:38;24.00;1.00
3860;DHT22;1945;52.036;8.614;2023-07-20T14:12:06;23.90;1.00
3860;DHT22;1945;52.036;8.614;2023-07-20T14:14:34;23.90;1.00
3860;DHT22;1945;52.036;8.614;2023-07-20T14:17:02;24.40;1.00
3860;DHT22;1945;52.036;8.614;2023-07-20T14:19:29;24.10;1.00
3860;DHT22;1945;52.036;8.614;2023-07-20T14:21:56;24.00;1.00
3860;DHT22;1945;52.036;8.614;2023-07-20T14:24:26;23.40;1.00
3860;DHT22;1945;52.036;8.614;2023-07-20T14:26:53;23.00;1.00
3860;DHT22;1945;52.036;8.614;2023-07-20T14:29:20;22.90;1.00
3860;DHT22;1945;52.036;8.614;2023-07-20T14:31:47;22.70;1.00
3860;DHT22;1945;52.036;8.614;2023-07-20T14:34:17;22.20;1.00
3860;DHT22;1945;52.036;8.614;2023-07-20T14:36:44;22.30;1.00
3860;DHT22;1945;52.036;8.614;2023-07-20T14:39:11;22.40;1.00
3860;DHT22;1945;52.036;8.614;2023-07-20T14:41:38;22.10;1.00
3860;DHT22;1945;52.036;8.614;2023-07-20T14:44:05;22.30;1.00
3860;DHT22;1945;52.036;8.614;2023-07-20T14:46:32;22.20;1.00
3860;DHT22;1945;52.036;8.614;2023-07-20T14:48:58;21.80;1.00
3860;DHT22;1945;52.036;8.614;2023-07-20T14:51:27;21.80;1.00
3860;DHT22;1945;52.036;8.614;2023-07-20T14:53:59;22.00;99.90
3860;DHT22;1945;52.036;8.614;2023-07-20T14:56:26;21.60;99.90
3860;DHT22;1945;52.036;8.614;2023-07-20T14:58:53;21.70;99.90
3860;DHT22;1945;52.036;8.614;2023-07-20T15:01:20;21.70;99.90
3860;DHT22;1945;52.036;8.614;2023-07-20T15:03:47;22.10;99.90
3860;DHT22;1945;52.036;8.614;2023-07-20T15:06:15;22.30;99.90
3860;DHT22;1945;52.036;8.614;2023-07-20T15:08:43;22.20;99.90
3860;DHT22;1945;52.036;8.614;2023-07-20T15:11:10;22.20;99.90
3860;DHT22;1945;52.036;8.614;2023-07-20T15:13:38;21.80;1.00
3860;DHT22;1945;52.036;8.614;2023-07-20T15:16:07;21.90;99.90
3860;DHT22;1945;52.036;8.614;2023-07-20T15:18:35;22.00;1.00
3860;DHT22;1945;52.036;8.614;2023-07-20T15:21:02;21.80;1.00
3860;DHT22;1945;52.036;8.614;2023-07-20T15:23:29;22.10;1.00
3860;DHT22;1945;52.036;8.614;2023-07-20T15:25:58;22.10;1.00
3860;DHT22;1945;52.036;8.614;2023-07-20T15:28:25;22.30;99.90
3860;DHT22;1945;52.036;8.614;2023-07-20T15:30:59;22.20;99.90
3860;DHT22;1945;52.036;8.614;2023-07-20T15:33:26;22.30;99.90
3860;DHT22;1945;52.036;8.614;2023-07-20T15:35:53;22.20;99.90
3860;DHT22;1945;52.036;8.614;2023-07-20T15:38:20;22.40;1.00
3860;DHT22;1945;52.036;8.614;2023-07-20T15:40:47;22.40;99.90
3860;DHT22;1945;52.036;8.614;2023-07-20T15:43:17;22.30;1.00
3860;DHT22;1945;52.036;8.614;2023-07-20T15:45:47;21.80;1.00
3860;DHT22;1945;52.036;8.614;2023-07-20T15:48:15;21.80;99.90
3860;DHT22;1945;52.036;8.614;2023-07-20T15:50:42;22.20;99.90
3860;DHT22;1945;52.036;8.614;2023-07-20T15:53:10;22.20;99.90
3860;DHT22;1945;52.036;8.614;2023-07-20T15:55:37;22.10;99.90
3860;DHT22;1945;52.036;8.614;2023-07-20T15:58:04;22.40;99.90
3860;DHT22;1945;52.036;8.614;2023-07-20T16:00:33;22.30;99.90
3860;DHT22;1945;52.036;8.614;2023-07-20T16:03:00;22.10;99.90
3860;DHT22;1945;52.036;8.614;2023-07-20T16:05:27;22.10;99.90
3860;DHT22;1945;52.036;8.614;2023-07-20T16:07:54;22.10;99.90
3860;DHT22;1945;52.036;8.614;2023-07-20T16:10:21;22.30;99.90
3860;DHT22;1945;52.036;8.614;2023-07-20T16:12:48;21.90;99.90
3860;DHT22;1945;52.036;8.614;2023-07-20T16:15:15;21.90;99.90
3860;DHT22;1945;52.036;8.614;2023-07-20T16:17:44;21.70;1.00
3860;DHT22;1945;52.036;8.614;2023-07-20T16:20:11;21.70;1.00
3860;DHT22;1945;52.036;8.614;2023-07-20T16:22:39;21.40;99.90
3860;DHT22;1945;52.036;8.614;2023-07-20T16:25:09;21.30;99.90
3860;DHT22;1945;52.036;8.614;2023-07-20T16:27:36;21.50;99.90